Corona Station Airport

YCNA · New South Wales, 澳大利亚

METAR YCNA · Corona Station Airport

21 六月 08:00 LT
21m
使用的METAR站距离机场441 km。
罗盘
风向 的 风向 190°
风: 6 kt, 2 beaufort

添加一条跑道以查看侧风和逆风信息。

添置 跑道
0 ft 1.000 2.000 3.000 4.000 5.000
未检测到零云
METAR YPWR 202230Z AUTO 19006KT 9999 // NCD 07/07 Q1025 RF00.0/000.0

METAR Corona Station Airport - YCNA

Corona Station Airport是,澳大利亚中的小机场。 该机场位于纬度-31,29080和经度141,45200。 本场的ICAO机场代码为YCNA。 机场在Melbourne FIR中。

该航空气象观测是针对Woomera Airfield在2024年6月21日 08:00, 当地时间进行的。

机场观察

风向为190°,速度为6 kt。

可见度为10 km 或者更多。

有未检测到零云。 没有观察到天花板。

温度为7 °C,阵风为4 °C。 露点为7 °C,相对湿度为100%。 海平面上的气压为1025 hPa (QNH)。

白天

今天,太阳从07:02升起,在17:09降落。 这适用于Corona Station Airport,世界夏令时可能有所不同。 当地时间与世界标准时间之间的时差为+9 小时 30 分钟。 夏令时目前正在进行中。

公司介绍

我们没有关于这个机场的公司信息。

体会

到Vliegles.nl去找飞行课程,跳伞和其他飞行体验。 浏览页面,了解Corona Station Airport附近所有可用的活动。 你也可以使用搜索功能来寻找你所在地附近的特定飞行课程、跳伞或其他飞行体验。

乌云

- NCD 未检测到零云

温度 & 天气

温度 7 °C
露点 7 °C
相对湿度 100%
风寒 4 °C
Kp-index 3 (0-9)

白天

日出
07:20
中午
12:24
日落
17:28

小工具

你想在你的网站上有一个关于Corona Station Airport的当前航空天气(METAR)的小部件吗?

显示HTML代码
报告变更